Time;durP1;ratioP1;P1;durP2;ratioP2;P2;SDS_P1;SDS_P2;PMS_P1;PMS_P2;Temp;Humidity;BMP_temperature;BMP_pressure;BME280_temperature;BME280_humidity;BME280_pressure;Samples;Min_cycle;Max_cycle;Signal;HPM_P1;HPM_P2
2022/06/12 00:01:54;;;;;;;18.33;3.22;;;15.90;99.90;;;;;;5073681;28;20024;-72
2022/06/12 00:04:20;;;;;;;18.23;3.55;;;15.80;99.90;;;;;;5073276;28;20020;-73
2022/06/12 00:06:47;;;;;;;20.92;3.60;;;15.80;99.90;;;;;;5073193;28;20032;-72
2022/06/12 00:09:13;;;;;;;26.30;3.70;;;15.90;99.90;;;;;;5073821;28;20048;-73
2022/06/12 00:11:40;;;;;;;20.20;3.83;;;15.80;99.90;;;;;;5074384;28;20086;-73
2022/06/12 00:14:06;;;;;;;25.75;3.33;;;15.80;99.90;;;;;;5073374;28;20028;-73
2022/06/12 00:16:34;;;;;;;19.17;3.47;;;15.80;99.90;;;;;;5074978;28;20013;-73
2022/06/12 00:19:00;;;;;;;25.02;3.67;;;15.80;99.90;;;;;;5075225;28;20432;-73
2022/06/12 00:21:27;;;;;;;22.17;3.25;;;15.80;99.90;;;;;;5075133;28;20127;-74
2022/06/12 00:24:00;;;;;;;23.75;3.67;;;15.80;99.90;;;;;;5076864;28;20016;-74
2022/06/12 00:26:30;;;;;;;25.38;4.22;;;15.80;99.90;;;;;;5077557;28;20021;-74
2022/06/12 00:29:02;;;;;;;21.05;3.50;;;15.80;99.90;;;;;;5075456;28;20025;-74
2022/06/12 00:31:29;;;;;;;24.48;3.70;;;15.80;99.90;;;;;;5055000;28;20097;-74
2022/06/12 00:33:55;;;;;;;25.98;4.22;;;15.70;99.90;;;;;;5072816;28;20024;-74
2022/06/12 00:36:20;;;;;;;26.40;3.78;;;15.70;99.90;;;;;;5072438;28;20067;-73
2022/06/12 00:38:46;;;;;;;29.15;4.35;;;15.70;99.90;;;;;;5071239;28;20078;-74
2022/06/12 00:41:12;;;;;;;24.38;4.60;;;15.70;99.90;;;;;;5054015;28;20020;-74
2022/06/12 00:43:38;;;;;;;30.38;4.15;;;15.60;99.90;;;;;;5072184;28;20016;-74
2022/06/12 00:46:05;;;;;;;28.33;4.28;;;15.60;99.90;;;;;;5071975;28;20017;-74
2022/06/12 00:48:35;;;;;;;28.70;4.38;;;15.60;99.90;;;;;;5072051;28;20028;-74
2022/06/12 00:51:07;;;;;;;32.78;4.25;;;15.60;99.90;;;;;;5053665;28;20338;-73
2022/06/12 00:53:43;;;;;;;21.98;4.18;;;15.60;99.90;;;;;;5071771;28;20507;-73
2022/06/12 00:56:21;;;;;;;27.45;4.22;;;15.60;99.90;;;;;;5071891;28;20020;-73
2022/06/12 00:58:55;;;;;;;28.42;4.65;;;15.60;99.90;;;;;;5071874;28;20055;-73
2022/06/12 01:01:30;;;;;;;29.10;4.28;;;15.60;99.90;;;;;;5071044;28;20043;-73
2022/06/12 01:06:44;;;;;;;21.15;4.43;;;15.50;99.90;;;;;;5062600;28;20067;-73
2022/06/12 01:09:16;;;;;;;30.42;4.80;;;15.50;99.90;;;;;;5070845;28;20321;-73
2022/06/12 01:11:45;;;;;;;26.67;4.38;;;15.50;99.90;;;;;;5061631;28;20494;-73
2022/06/12 01:14:14;;;;;;;26.90;4.65;;;15.40;99.90;;;;;;5071674;28;20028;-73
2022/06/12 01:16:45;;;;;;;29.90;5.32;;;15.40;99.90;;;;;;5071068;28;20040;-73
2022/06/12 01:19:36;;;;;;;26.38;4.63;;;15.40;99.90;;;;;;5053775;28;20456;-73
2022/06/12 01:22:15;;;;;;;31.60;5.00;;;15.40;99.90;;;;;;5071151;28;20416;-73
2022/06/12 01:24:59;;;;;;;23.00;4.70;;;15.30;99.90;;;;;;5071074;28;20035;-73
2022/06/12 01:27:31;;;;;;;31.27;5.50;;;15.30;99.90;;;;;;5071248;28;20132;-73
2022/06/12 01:30:20;;;;;;;30.50;5.30;;;15.30;99.90;;;;;;5071397;28;20460;-73
2022/06/12 01:33:00;;;;;;;30.48;5.40;;;15.30;99.90;;;;;;5071419;28;20036;-73
2022/06/12 01:35:38;;;;;;;28.88;5.10;;;15.30;99.90;;;;;;5071033;28;20029;-73
2022/06/12 01:38:18;;;;;;;34.38;5.50;;;15.20;99.90;;;;;;5071088;28;20056;-73
2022/06/12 01:41:00;;;;;;;38.05;6.18;;;15.30;99.90;;;;;;5071047;28;20069;-73
2022/06/12 01:43:50;;;;;;;31.08;5.15;;;15.20;99.90;;;;;;5070794;28;20051;-73
2022/06/12 01:46:23;;;;;;;32.13;6.35;;;15.20;99.90;;;;;;5071086;28;20054;-73
2022/06/12 01:49:01;;;;;;;35.50;5.65;;;15.20;99.90;;;;;;5070966;28;20496;-73
2022/06/12 01:51:43;;;;;;;28.13;5.25;;;15.30;99.90;;;;;;5070754;28;20031;-73
2022/06/12 01:54:22;;;;;;;35.70;6.00;;;15.20;99.90;;;;;;5070708;28;20078;-73
2022/06/12 01:57:06;;;;;;;30.25;6.15;;;15.20;99.90;;;;;;5070749;28;20029;-73
2022/06/12 01:59:46;;;;;;;28.90;5.80;;;15.20;99.90;;;;;;5052789;28;20028;-73
2022/06/12 02:02:19;;;;;;;39.67;6.57;;;15.20;99.90;;;;;;5070585;28;20376;-73
2022/06/12 02:05:05;;;;;;;33.55;6.00;;;15.20;99.90;;;;;;5070808;28;20016;-73
2022/06/12 02:07:38;;;;;;;35.03;6.28;;;15.10;99.90;;;;;;5070504;28;20122;-73
2022/06/12 02:10:27;;;;;;;33.33;5.97;;;15.20;99.90;;;;;;5070625;28;20112;-73
2022/06/12 02:13:11;;;;;;;32.83;6.30;;;15.10;99.90;;;;;;5070402;28;20033;-73
2022/06/12 02:16:08;;;;;;;33.50;6.15;;;15.20;99.90;;;;;;5070281;28;20377;-73
2022/06/12 02:18:46;;;;;;;36.33;6.40;;;15.10;99.90;;;;;;5057231;28;20103;-72
2022/06/12 02:21:48;;;;;;;37.83;6.53;;;15.10;99.90;;;;;;5069741;28;20060;-73
2022/06/12 02:24:19;;;;;;;42.17;7.20;;;15.10;99.90;;;;;;5036883;28;20028;-73
2022/06/12 02:27:19;;;;;;;39.13;6.65;;;15.10;99.90;;;;;;5068289;28;20039;-73
2022/06/12 02:29:56;;;;;;;31.77;6.20;;;15.10;99.90;;;;;;5063990;28;20040;-75
2022/06/12 02:32:27;;;;;;;27.00;6.30;;;15.10;99.90;;;;;;5070115;28;20543;-73
2022/06/12 02:34:58;;;;;;;38.95;6.97;;;15.10;99.90;;;;;;5068100;28;20512;-73
2022/06/12 02:37:29;;;;;;;27.67;6.38;;;15.10;99.90;;;;;;5052328;28;20241;-73
2022/06/12 02:40:02;;;;;;;30.58;6.50;;;15.10;99.90;;;;;;5052121;28;20038;-73
2022/06/12 02:42:37;;;;;;;36.65;6.88;;;15.10;99.90;;;;;;5070118;28;20512;-73
2022/06/12 02:45:10;;;;;;;36.67;6.85;;;15.10;99.90;;;;;;5070538;28;20025;-73
2022/06/12 02:47:38;;;;;;;33.00;6.38;;;15.00;99.90;;;;;;5069981;28;20400;-73
2022/06/12 02:50:06;;;;;;;26.75;6.47;;;15.00;99.90;;;;;;5070075;28;20032;-73
2022/06/12 02:52:43;;;;;;;26.10;6.55;;;15.00;99.90;;;;;;5069751;28;20086;-73
2022/06/12 02:55:45;;;;;;;36.15;6.90;;;15.00;99.90;;;;;;5069803;28;20047;-73
2022/06/12 02:58:48;;;;;;;25.67;6.47;;;15.10;99.90;;;;;;5070160;28;20075;-74
2022/06/12 03:01:18;;;;;;;36.28;7.28;;;15.00;99.90;;;;;;5070018;28;20037;-73
2022/06/12 03:04:08;;;;;;;31.48;6.45;;;15.00;99.90;;;;;;5069478;28;20023;-73
2022/06/12 03:06:34;;;;;;;31.65;6.78;;;15.00;99.90;;;;;;5069844;28;20017;-73
2022/06/12 03:09:02;;;;;;;34.47;6.80;;;15.00;99.90;;;;;;5070130;28;20380;-73
2022/06/12 03:11:33;;;;;;;27.70;6.63;;;14.90;99.90;;;;;;5051627;28;20040;-73
2022/06/12 03:13:59;;;;;;;29.75;6.95;;;14.90;99.90;;;;;;5070051;28;20025;-73
2022/06/12 03:16:28;;;;;;;25.60;6.82;;;14.90;99.90;;;;;;5069902;28;20021;-73
2022/06/12 03:19:17;;;;;;;38.92;7.32;;;14.90;99.90;;;;;;5069696;28;20028;-73
2022/06/12 03:21:49;;;;;;;36.95;7.00;;;14.90;99.90;;;;;;5069446;28;20045;-73
2022/06/12 03:24:46;;;;;;;30.95;6.85;;;14.90;99.90;;;;;;5069690;28;20052;-73
2022/06/12 03:27:53;;;;;;;28.20;6.82;;;14.90;99.90;;;;;;5069919;28;20037;-73
2022/06/12 03:30:38;;;;;;;29.95;6.65;;;14.90;99.90;;;;;;5019472;28;20447;-73
2022/06/12 03:33:35;;;;;;;28.92;6.05;;;14.90;99.90;;;;;;5011276;28;20037;-73
2022/06/12 03:36:14;;;;;;;25.98;6.15;;;14.80;99.90;;;;;;5011131;28;20185;-74
2022/06/12 03:38:52;;;;;;;27.83;5.88;;;14.90;99.90;;;;;;5010478;28;20125;-73
2022/06/12 03:41:54;;;;;;;27.33;5.95;;;14.80;99.90;;;;;;5010189;28;20058;-74
2022/06/12 03:44:31;;;;;;;29.55;5.82;;;14.80;99.90;;;;;;5011039;28;20117;-73
2022/06/12 03:47:28;;;;;;;34.85;6.43;;;14.80;99.90;;;;;;5024620;28;20037;-73
2022/06/12 03:50:03;;;;;;;32.92;6.55;;;14.80;99.90;;;;;;5010800;28;20018;-73
2022/06/12 03:52:31;;;;;;;;;;;14.80;99.90;;;;;;5011803;28;20175;-74
2022/06/12 03:55:13;;;;;;;26.63;5.93;;;14.80;99.90;;;;;;5021010;28;19988;-74
2022/06/12 03:57:54;;;;;;;28.80;5.85;;;14.80;99.90;;;;;;5028260;28;20072;-73
2022/06/12 04:00:39;;;;;;;28.83;5.97;;;14.70;99.90;;;;;;5030511;28;20080;-74
2022/06/12 04:03:18;;;;;;;24.83;5.60;;;14.70;99.90;;;;;;5024094;28;20022;-73
2022/06/12 04:05:54;;;;;;;28.48;5.95;;;14.80;99.90;;;;;;5067378;28;20067;-74
2022/06/12 04:08:25;;;;;;;26.42;5.50;;;14.80;99.90;;;;;;5072882;28;20484;-74
2022/06/12 04:10:52;;;;;;;41.17;6.97;;;14.70;99.90;;;;;;5073011;28;20036;-72
2022/06/12 04:13:19;;;;;;;31.60;6.03;;;14.80;99.90;;;;;;5055198;28;20058;-72
2022/06/12 04:15:54;;;;;;;28.65;6.18;;;14.80;99.90;;;;;;5072431;28;20074;-72
2022/06/12 04:18:20;;;;;;;30.02;6.20;;;14.80;99.90;;;;;;5059085;28;20021;-73
2022/06/12 04:20:55;;;;;;;25.45;5.20;;;14.80;99.90;;;;;;5072364;28;20037;-73
2022/06/12 04:23:30;;;;;;;26.95;5.60;;;14.80;99.90;;;;;;5072732;28;20017;-73
2022/06/12 04:26:21;;;;;;;25.55;5.65;;;14.80;99.90;;;;;;5072637;28;20054;-73
2022/06/12 04:28:56;;;;;;;26.42;5.72;;;14.80;99.90;;;;;;5066587;28;20508;-73
2022/06/12 04:31:22;;;;;;;23.10;5.35;;;14.80;99.90;;;;;;5072015;28;20043;-73
2022/06/12 04:34:31;;;;;;;23.35;5.47;;;14.90;99.90;;;;;;5072441;28;20024;-73
2022/06/12 04:37:19;;;;;;;24.90;5.60;;;14.90;99.90;;;;;;5010777;28;20116;-73
2022/06/12 04:39:47;;;;;;;22.08;4.97;;;14.90;99.90;;;;;;5009224;28;20029;-73
2022/06/12 04:42:15;;;;;;;30.73;5.72;;;14.90;99.90;;;;;;5013291;28;20077;-73
2022/06/12 04:44:41;;;;;;;24.98;5.05;;;14.90;99.90;;;;;;5030026;28;20646;-73
2022/06/12 04:47:10;;;;;;;28.17;5.70;;;15.00;99.90;;;;;;5012406;28;20116;-74
2022/06/12 04:49:36;;;;;;;20.33;5.05;;;15.00;99.90;;;;;;5010788;28;20022;-73
2022/06/12 04:52:04;;;;;;;21.52;5.00;;;15.00;99.90;;;;;;5010213;28;20089;-73
2022/06/12 04:54:31;;;;;;;22.42;4.70;;;15.00;99.90;;;;;;5029957;28;20033;-73
2022/06/12 04:56:58;;;;;;;22.05;4.90;;;15.10;99.90;;;;;;5018388;28;20026;-73
2022/06/12 04:59:24;;;;;;;26.30;4.72;;;15.10;99.90;;;;;;5010308;28;20025;-72
2022/06/12 05:01:49;;;;;;;19.00;4.13;;;15.10;99.90;;;;;;5010317;28;20045;-73
2022/06/12 05:04:16;;;;;;;20.00;4.30;;;15.10;99.90;;;;;;5012207;28;20022;-73
2022/06/12 05:06:44;;;;;;;21.38;4.20;;;15.20;99.90;;;;;;5026802;28;20069;-73
2022/06/12 05:09:12;;;;;;;16.55;3.67;;;15.20;99.90;;;;;;5067152;28;20395;-73
2022/06/12 05:11:38;;;;;;;23.08;3.78;;;15.20;99.90;;;;;;5072549;28;20107;-73
2022/06/12 05:14:04;;;;;;;17.17;3.05;;;15.30;99.90;;;;;;5072042;28;20142;-73
2022/06/12 05:16:51;;;;;;;17.52;3.70;;;15.40;99.90;;;;;;5054240;28;20020;-73
2022/06/12 05:19:20;;;;;;;14.07;3.55;;;15.40;99.90;;;;;;5054179;28;20451;-72
2022/06/12 05:21:46;;;;;;;16.02;3.30;;;15.40;99.90;;;;;;5053911;28;20051;-74
2022/06/12 05:24:13;;;;;;;15.48;3.53;;;15.50;99.90;;;;;;5071964;28;20476;-73
2022/06/12 05:26:41;;;;;;;14.95;3.17;;;15.50;99.90;;;;;;5053594;28;20021;-73
2022/06/12 05:29:11;;;;;;;10.05;3.15;;;15.60;99.90;;;;;;5071980;28;20103;-73
2022/06/12 05:31:36;;;;;;;13.98;3.33;;;15.60;99.90;;;;;;5040049;28;20037;-73
2022/06/12 05:34:02;;;;;;;18.25;3.35;;;15.70;99.90;;;;;;5072557;28;20443;-73
2022/06/12 05:36:28;;;;;;;17.15;3.53;;;15.70;99.90;;;;;;5072459;28;20038;-73
2022/06/12 05:38:54;;;;;;;17.60;3.15;;;15.70;99.90;;;;;;5071899;28;20025;-73
2022/06/12 05:41:20;;;;;;;14.38;3.42;;;15.80;99.90;;;;;;5053766;28;20512;-73
2022/06/12 05:43:46;;;;;;;18.15;2.67;;;15.80;99.90;;;;;;5071930;28;20335;-73
2022/06/12 05:46:13;;;;;;;13.80;3.08;;;15.80;99.90;;;;;;5071764;28;20035;-73
2022/06/12 05:48:40;;;;;;;11.65;3.05;;;15.90;99.90;;;;;;5071721;28;20020;-73
2022/06/12 05:51:06;;;;;;;16.15;3.47;;;15.90;99.90;;;;;;5071302;28;20029;-73
2022/06/12 05:53:37;;;;;;;12.35;3.20;;;15.90;99.90;;;;;;5071594;28;20495;-73
2022/06/12 05:56:08;;;;;;;12.85;2.83;;;16.00;99.90;;;;;;5071348;28;20029;-73
2022/06/12 05:58:36;;;;;;;16.83;3.22;;;16.00;99.90;;;;;;5062789;28;20423;-73
2022/06/12 06:01:04;;;;;;;13.15;3.10;;;16.10;99.90;;;;;;5071432;28;20032;-73
2022/06/12 06:03:29;;;;;;;9.23;3.00;;;16.10;99.90;;;;;;5053588;28;20103;-73
2022/06/12 06:05:55;;;;;;;12.23;2.80;;;16.10;99.90;;;;;;5071600;28;20175;-73
2022/06/12 06:08:21;;;;;;;11.13;2.88;;;16.10;99.90;;;;;;5072024;28;20028;-73
2022/06/12 06:10:47;;;;;;;12.82;3.08;;;16.20;99.90;;;;;;5071397;28;20029;-73
2022/06/12 06:13:12;;;;;;;11.98;3.40;;;16.20;99.90;;;;;;5071183;28;20017;-73
2022/06/12 06:15:38;;;;;;;13.57;3.53;;;16.20;99.90;;;;;;5071529;28;20032;-73
2022/06/12 06:18:05;;;;;;;10.52;3.22;;;16.30;99.90;;;;;;5071053;28;20020;-73
2022/06/12 06:20:36;;;;;;;12.80;2.90;;;16.30;99.90;;;;;;5070676;28;20040;-73
2022/06/12 06:23:02;;;;;;;12.65;3.13;;;16.30;99.90;;;;;;5070496;28;20454;-73
2022/06/12 06:25:29;;;;;;;15.40;3.60;;;16.40;99.90;;;;;;5070422;28;20016;-74
2022/06/12 06:27:56;;;;;;;15.85;3.22;;;16.40;99.90;;;;;;5070265;28;20023;-73
2022/06/12 06:30:23;;;;;;;15.73;3.15;;;16.40;99.90;;;;;;5070570;28;20456;-73
2022/06/12 06:32:49;;;;;;;11.57;3.08;;;16.40;99.90;;;;;;5070329;28;20025;-73
2022/06/12 06:35:14;;;;;;;10.10;2.85;;;16.50;99.90;;;;;;5070142;28;20442;-73
2022/06/12 06:37:40;;;;;;;13.55;3.33;;;16.50;99.90;;;;;;5070024;28;20032;-74
2022/06/12 06:40:09;;;;;;;13.93;3.00;;;16.60;99.90;;;;;;5070324;28;20021;-73
2022/06/12 06:42:34;;;;;;;18.13;3.05;;;16.60;99.90;;;;;;5052025;28;20020;-73
2022/06/12 06:47:44;;;;;;;13.65;3.10;;;16.70;99.90;;;;;;5056053;28;20027;-73
2022/06/12 06:50:12;;;;;;;15.93;3.42;;;16.80;99.90;;;;;;5070480;28;20426;-74
2022/06/12 06:52:38;;;;;;;11.45;3.05;;;16.90;99.90;;;;;;5069775;28;20044;-73
2022/06/12 06:55:04;;;;;;;14.23;3.30;;;16.90;99.90;;;;;;5070096;28;20132;-73
2022/06/12 06:57:30;;;;;;;11.93;2.63;;;17.00;99.90;;;;;;5069806;28;20033;-73
2022/06/12 06:59:56;;;;;;;12.55;2.95;;;17.10;99.90;;;;;;5051893;28;20662;-73
2022/06/12 07:02:22;;;;;;;10.95;3.00;;;17.10;99.90;;;;;;5069710;28;20024;-73
2022/06/12 07:04:47;;;;;;;14.13;3.03;;;17.20;99.90;;;;;;5074251;28;20031;-73
2022/06/12 07:07:13;;;;;;;14.80;3.03;;;17.30;99.90;;;;;;5056129;28;20021;-73
2022/06/12 07:09:42;;;;;;;13.18;3.13;;;17.40;99.90;;;;;;5073903;28;20023;-73
2022/06/12 07:12:08;;;;;;;11.48;2.90;;;17.60;99.90;;;;;;5068315;28;20029;-73
2022/06/12 07:14:34;;;;;;;11.23;2.80;;;17.80;99.90;;;;;;5056669;28;20077;-74
2022/06/12 07:17:00;;;;;;;12.40;2.78;;;17.90;99.90;;;;;;5073220;28;20024;-74
2022/06/12 07:19:27;;;;;;;12.07;2.55;;;17.90;99.90;;;;;;5066903;28;20110;-75
2022/06/12 07:21:53;;;;;;;10.07;2.70;;;18.10;99.90;;;;;;5062360;28;20456;-74
2022/06/12 07:24:19;;;;;;;11.93;2.78;;;18.20;99.90;;;;;;5064509;28;20028;-74
2022/06/12 07:26:48;;;;;;;16.45;3.03;;;18.30;99.90;;;;;;5052734;28;20500;-74
2022/06/12 07:29:17;;;;;;;10.57;2.75;;;18.40;99.90;;;;;;5060104;28;20487;-74
2022/06/12 07:31:44;;;;;;;16.13;3.13;;;18.50;99.90;;;;;;5061094;28;20036;-74
2022/06/12 07:34:12;;;;;;;12.15;2.80;;;18.60;99.90;;;;;;5052180;28;20021;-73
2022/06/12 07:36:39;;;;;;;12.93;3.03;;;18.70;99.90;;;;;;5054859;28;20074;-72
2022/06/12 07:39:08;;;;;;;11.52;3.00;;;18.80;99.90;;;;;;5062569;28;20104;-73
2022/06/12 07:41:34;;;;;;;14.48;3.08;;;19.00;99.90;;;;;;5068006;28;20047;-73
2022/06/12 07:44:00;;;;;;;11.07;2.95;;;19.20;99.90;;;;;;5064893;28;20029;-73
2022/06/12 07:46:27;;;;;;;11.75;2.92;;;19.30;99.90;;;;;;5060846;28;20021;-73
2022/06/12 07:48:52;;;;;;;14.02;3.10;;;19.50;99.90;;;;;;5059864;28;20040;-73
2022/06/12 07:51:20;;;;;;;11.65;3.03;;;19.60;99.90;;;;;;5056763;28;20056;-73
2022/06/12 07:53:48;;;;;;;12.63;2.97;;;19.70;99.90;;;;;;5057983;28;20040;-73
2022/06/12 07:56:14;;;;;;;14.40;2.70;;;19.70;99.90;;;;;;5070461;28;20028;-74
2022/06/12 07:58:41;;;;;;;13.32;3.03;;;19.80;99.90;;;;;;5059329;28;20021;-73
2022/06/12 08:01:09;;;;;;;8.77;2.53;;;19.80;99.90;;;;;;5054353;28;20032;-73
2022/06/12 08:03:35;;;;;;;9.52;2.65;;;19.90;99.90;;;;;;5061812;28;20017;-74
2022/06/12 08:06:01;;;;;;;10.05;2.67;;;20.00;99.90;;;;;;5069588;28;20024;-73
2022/06/12 08:08:28;;;;;;;14.30;3.28;;;20.00;99.90;;;;;;5072637;28;20303;-73
2022/06/12 08:10:54;;;;;;;10.57;2.90;;;20.20;99.90;;;;;;5066204;28;20021;-73
2022/06/12 08:13:20;;;;;;;14.68;3.10;;;20.40;99.90;;;;;;5059521;28;20035;-76
2022/06/12 08:15:48;;;;;;;13.38;2.80;;;20.40;99.90;;;;;;5050815;28;20107;-77
2022/06/12 08:18:15;;;;;;;13.70;2.60;;;20.40;99.90;;;;;;5053607;28;20017;-77
2022/06/12 08:20:45;;;;;;;14.68;3.08;;;20.50;99.90;;;;;;5060567;28;20033;-76
2022/06/12 08:23:49;;;;;;;14.02;2.88;;;20.50;99.90;;;;;;5067133;28;20045;-77
2022/06/12 08:26:25;;;;;;;13.07;2.75;;;20.60;99.90;;;;;;5015229;28;20055;-77
2022/06/12 08:28:54;;;;;;;12.30;2.80;;;20.70;99.90;;;;;;5073572;28;20098;-77
2022/06/12 08:31:30;;;;;;;13.25;2.97;;;20.80;99.90;;;;;;5073285;28;20506;-76
2022/06/12 08:34:01;;;;;;;9.65;2.60;;;20.90;99.90;;;;;;5036795;28;20040;-78
2022/06/12 08:36:27;;;;;;;12.38;2.65;;;20.90;99.90;;;;;;5068660;28;20419;-73
2022/06/12 08:38:54;;;;;;;13.93;3.10;;;21.00;99.90;;;;;;5072159;28;20020;-74
2022/06/12 08:41:38;;;;;;;10.15;3.00;;;21.00;99.90;;;;;;5071977;28;20089;-74
2022/06/12 08:44:32;;;;;;;13.38;2.88;;;20.90;99.90;;;;;;5070167;28;20028;-74
2022/06/12 08:47:25;;;;;;;12.65;2.60;;;20.90;99.90;;;;;;5054044;28;20115;-74
2022/06/12 08:50:10;;;;;;;11.15;2.65;;;20.90;99.40;;;;;;5071771;28;20029;-73
2022/06/12 08:52:51;;;;;;;11.27;2.75;;;21.00;98.80;;;;;;5071620;28;20052;-74
2022/06/12 08:55:25;;;;;;;10.82;2.80;;;21.10;98.90;;;;;;5071948;28;20107;-74
2022/06/12 08:58:16;;;;;;;11.52;3.15;;;21.30;98.80;;;;;;5071974;28;20410;-73
2022/06/12 09:00:44;;;;;;;11.93;3.13;;;21.50;98.00;;;;;;5066746;28;20045;-74
2022/06/12 09:03:21;;;;;;;8.95;2.10;;;21.60;96.60;;;;;;5071853;28;20037;-74
2022/06/12 09:06:10;;;;;;;10.10;2.58;;;21.70;95.60;;;;;;5071810;28;20025;-74
2022/06/12 09:09:00;;;;;;;10.70;2.30;;;21.60;94.80;;;;;;5071850;28;20028;-74
2022/06/12 09:11:34;;;;;;;9.68;2.60;;;21.50;94.20;;;;;;5071627;28;20032;-74
2022/06/12 09:14:08;;;;;;;11.38;3.10;;;21.60;95.00;;;;;;5072070;28;20082;-74
2022/06/12 09:16:57;;;;;;;9.23;2.37;;;21.60;93.00;;;;;;5071575;28;20021;-73
2022/06/12 09:19:48;;;;;;;10.27;2.60;;;21.60;93.10;;;;;;5070833;28;20283;-74
2022/06/12 09:22:34;;;;;;;9.93;2.53;;;21.60;92.80;;;;;;5071299;28;20051;-74
2022/06/12 09:25:19;;;;;;;11.57;2.40;;;21.60;92.50;;;;;;5071110;28;20032;-74
2022/06/12 09:27:44;;;;;;;8.77;2.47;;;21.40;91.50;;;;;;5071944;28;20025;-73
2022/06/12 09:30:19;;;;;;;13.20;2.90;;;21.40;91.90;;;;;;5070808;28;20027;-74
2022/06/12 09:33:04;;;;;;;9.45;2.33;;;21.50;92.30;;;;;;5070703;28;20047;-73
2022/06/12 09:35:38;;;;;;;13.13;2.97;;;21.70;92.40;;;;;;5071208;28;20433;-73
2022/06/12 09:38:19;;;;;;;12.60;2.90;;;21.80;92.30;;;;;;5071066;28;20024;-73
2022/06/12 09:41:09;;;;;;;13.05;2.90;;;21.80;91.70;;;;;;5070902;28;20075;-74
2022/06/12 09:43:43;;;;;;;14.13;3.10;;;21.70;92.00;;;;;;5071261;28;20063;-74
2022/06/12 09:46:23;;;;;;;10.70;2.63;;;21.70;92.20;;;;;;5057950;28;20535;-74
2022/06/12 09:48:55;;;;;;;10.27;2.60;;;21.60;92.90;;;;;;5070918;28;20026;-72
2022/06/12 09:51:45;;;;;;;13.50;2.60;;;21.70;92.20;;;;;;5070680;28;20331;-72
2022/06/12 09:54:28;;;;;;;10.93;3.17;;;21.70;90.70;;;;;;5070856;28;20024;-73
2022/06/12 09:57:01;;;;;;;12.45;2.70;;;21.70;91.40;;;;;;5070772;28;20025;-73
2022/06/12 09:59:40;;;;;;;10.43;2.63;;;21.60;92.00;;;;;;5070645;28;20150;-72
2022/06/12 10:02:16;;;;;;;11.30;2.55;;;21.70;91.50;;;;;;5070746;28;20111;-73
2022/06/12 10:05:28;;;;;;;11.43;2.92;;;21.70;90.60;;;;;;5052852;28;20421;-78
2022/06/12 10:08:16;;;;;;;8.52;2.45;;;21.70;90.10;;;;;;4999192;28;20040;-75
2022/06/12 10:10:54;;;;;;;12.15;2.47;;;21.90;83.80;;;;;;4990195;28;20038;-76
2022/06/12 10:13:51;;;;;;;13.73;3.05;;;21.90;82.10;;;;;;4996897;28;20282;-75
2022/06/12 10:16:23;;;;;;;10.38;2.65;;;22.00;83.90;;;;;;5001312;28;20037;-77
2022/06/12 10:18:59;;;;;;;9.80;2.35;;;22.00;87.00;;;;;;5002996;28;20035;-76
2022/06/12 10:21:26;;;;;;;7.05;2.25;;;22.10;84.90;;;;;;5006071;28;20046;-75
2022/06/12 10:23:52;;;;;;;9.57;3.65;;;22.20;80.90;;;;;;5009684;28;20030;-76
2022/06/12 10:26:20;;;;;;;10.70;2.45;;;22.20;79.70;;;;;;5009436;28;20036;-76
2022/06/12 10:28:46;;;;;;;10.30;2.17;;;22.20;78.50;;;;;;4989815;28;20026;-77
2022/06/12 10:31:12;;;;;;;8.90;2.25;;;22.10;75.70;;;;;;5008872;28;20473;-77
2022/06/12 10:33:46;;;;;;;7.50;2.50;;;22.10;75.90;;;;;;5002664;28;20037;-76
2022/06/12 10:36:30;;;;;;;10.52;2.50;;;22.20;75.30;;;;;;5006932;28;20095;-78
2022/06/12 10:39:22;;;;;;;10.10;2.50;;;22.30;73.60;;;;;;5045272;28;20033;-79
2022/06/12 10:41:50;;;;;;;8.50;2.10;;;22.30;73.30;;;;;;5066811;28;20096;-80
2022/06/12 10:44:41;;;;;;;11.57;2.65;;;22.30;73.90;;;;;;5051951;28;20062;-77
2022/06/12 10:47:09;;;;;;;11.40;2.60;;;22.40;74.30;;;;;;5067140;28;20388;-80
2022/06/12 10:49:36;;;;;;;9.90;2.55;;;22.40;74.10;;;;;;5051872;28;20373;-79
2022/06/12 10:52:15;;;;;;;9.23;2.40;;;22.50;74.30;;;;;;5062406;28;20100;-78
2022/06/12 10:54:41;;;;;;;7.97;2.72;;;22.60;74.40;;;;;;5069349;28;20043;-78
2022/06/12 10:57:31;;;;;;;12.73;2.20;;;22.60;73.30;;;;;;5061251;28;20028;-76
2022/06/12 11:00:08;;;;;;;10.32;2.10;;;22.50;72.90;;;;;;5065914;28;20033;-77
2022/06/12 11:02:58;;;;;;;7.93;2.35;;;22.40;73.40;;;;;;5059674;28;20016;-77
2022/06/12 11:05:32;;;;;;;9.20;2.20;;;22.40;73.50;;;;;;5056918;28;20052;-78
2022/06/12 11:08:16;;;;;;;10.70;2.53;;;22.40;73.40;;;;;;5059314;28;20432;-77
2022/06/12 11:11:18;;;;;;;12.20;2.55;;;22.50;74.40;;;;;;5069210;28;20021;-76
2022/06/12 11:14:20;;;;;;;10.13;2.40;;;22.60;72.20;;;;;;5041173;28;20348;-74
2022/06/12 11:17:01;;;;;;;12.70;2.95;;;22.70;73.10;;;;;;5071262;28;20109;-75
2022/06/12 11:19:32;;;;;;;9.27;2.33;;;22.70;73.40;;;;;;5053915;28;20032;-75
2022/06/12 11:22:08;;;;;;;10.43;2.40;;;22.60;74.50;;;;;;5071082;28;20381;-75
2022/06/12 11:24:54;;;;;;;9.57;2.22;;;22.50;75.70;;;;;;5071244;28;20102;-74
2022/06/12 11:27:37;;;;;;;9.07;2.80;;;22.30;74.00;;;;;;5064953;28;20103;-75
2022/06/12 11:30:30;;;;;;;6.63;2.15;;;22.30;74.20;;;;;;5061188;28;20032;-73
2022/06/12 11:33:12;;;;;;;8.25;2.10;;;22.30;74.70;;;;;;5066392;28;20063;-73
2022/06/12 11:35:53;;;;;;;7.82;2.15;;;22.30;74.00;;;;;;5052386;28;20123;-74
2022/06/12 11:38:40;;;;;;;7.25;1.95;;;22.30;71.30;;;;;;5060084;28;20032;-74
2022/06/12 11:41:18;;;;;;;6.85;1.90;;;22.30;68.60;;;;;;5068841;28;20021;-73
2022/06/12 11:43:53;;;;;;;8.82;2.13;;;22.30;67.80;;;;;;5062619;28;20031;-73
2022/06/12 11:46:34;;;;;;;;;;;22.40;68.70;;;;;;5065946;28;20512;-73
2022/06/12 11:49:12;;;;;;;10.73;2.38;;;22.30;67.00;;;;;;5062376;28;20312;-74
2022/06/12 11:51:45;;;;;;;10.15;2.00;;;22.40;68.20;;;;;;5044875;28;20037;-73
2022/06/12 11:54:19;;;;;;;6.05;1.55;;;22.40;66.50;;;;;;5073193;28;20043;-74
2022/06/12 11:57:10;;;;;;;9.40;2.10;;;22.40;66.60;;;;;;5078305;28;20078;-74
2022/06/12 11:59:54;;;;;;;9.90;2.10;;;22.40;65.80;;;;;;5073761;28;20392;-74
2022/06/12 12:03:10;;;;;;;10.68;2.40;;;22.40;66.80;;;;;;5073394;28;20042;-73
2022/06/12 12:05:42;;;;;;;;;;;22.60;67.10;;;;;;5032005;28;20518;-73
2022/06/12 12:08:26;;;;;;;9.65;2.17;;;22.70;66.70;;;;;;5034250;28;20289;-75
2022/06/12 12:11:08;;;;;;;9.55;1.95;;;22.70;66.20;;;;;;5032448;28;20120;-72
2022/06/12 12:13:43;;;;;;;9.45;2.00;;;22.80;64.80;;;;;;5032341;28;20056;-73
2022/06/12 12:16:41;;;;;;;9.25;2.15;;;22.70;65.90;;;;;;5016908;28;20176;-72
2022/06/12 12:19:24;;;;;;;7.78;1.85;;;22.60;64.40;;;;;;5025434;28;20482;-73
2022/06/12 12:21:56;;;;;;;8.45;2.17;;;22.60;65.00;;;;;;5031774;28;20068;-72
2022/06/12 12:24:26;;;;;;;7.60;2.25;;;22.60;67.00;;;;;;5014137;28;20111;-72
2022/06/12 12:26:57;;;;;;;10.13;2.08;;;22.60;67.60;;;;;;5032887;28;20048;-72
2022/06/12 12:29:27;;;;;;;10.50;2.17;;;22.70;66.70;;;;;;5033628;28;20048;-73
2022/06/12 12:31:53;;;;;;;9.65;2.47;;;22.60;66.20;;;;;;5032190;28;20033;-74
2022/06/12 12:34:24;;;;;;;8.00;2.50;;;22.50;66.60;;;;;;5031531;28;20057;-73
2022/06/12 12:42:33;;;;;;;10.73;3.05;;;22.90;73.90;;;;;;5072615;28;20541;-74
2022/06/12 12:45:28;;;;;;;14.02;3.03;;;22.80;73.30;;;;;;5055366;28;20016;-74
2022/06/12 12:48:11;;;;;;;13.90;3.50;;;22.70;76.10;;;;;;5074655;28;20104;-75
2022/06/12 12:50:44;;;;;;;13.85;3.72;;;22.60;76.90;;;;;;5075478;28;20032;-74
2022/06/12 12:53:21;;;;;;;11.90;2.95;;;22.50;79.10;;;;;;5076300;28;20565;-79
2022/06/12 12:56:05;;;;;;;11.90;3.10;;;22.50;79.70;;;;;;5053237;28;20032;-74
2022/06/12 12:58:37;;;;;;;14.40;2.93;;;22.60;80.30;;;;;;5068804;28;20333;-76
2022/06/12 13:01:19;;;;;;;11.95;3.33;;;22.50;80.90;;;;;;5055531;28;20040;-76
2022/06/12 13:03:49;;;;;;;11.93;3.45;;;22.60;81.80;;;;;;5072549;28;20029;-76
2022/06/12 13:06:22;;;;;;;15.68;3.40;;;22.80;82.80;;;;;;5054567;28;20031;-75
2022/06/12 13:09:13;;;;;;;7.03;2.20;;;22.80;80.20;;;;;;5072555;28;20036;-77
2022/06/12 13:11:53;;;;;;;13.25;2.92;;;22.80;81.00;;;;;;5043147;28;20064;-77
2022/06/12 13:14:21;;;;;;;10.40;2.47;;;22.80;78.70;;;;;;5062374;28;20119;-78
2022/06/12 13:16:59;;;;;;;12.30;2.90;;;22.70;78.40;;;;;;5072684;28;20472;-77
2022/06/12 13:19:27;;;;;;;14.15;3.30;;;22.70;76.90;;;;;;5063162;28;20546;-77
2022/06/12 13:22:04;;;;;;;11.05;3.40;;;22.60;77.70;;;;;;5054756;28;20408;-77
2022/06/12 13:24:40;;;;;;;10.93;3.15;;;22.40;80.20;;;;;;5057675;28;20070;-76
2022/06/12 13:27:10;;;;;;;11.95;3.00;;;22.20;81.00;;;;;;5064098;28;20425;-77
2022/06/12 13:29:44;;;;;;;9.55;3.03;;;22.00;81.70;;;;;;5065093;28;20096;-77